createdAt,value
2023-03-18T00:04:12.715Z,5.05
2023-03-18T00:09:18.295Z,5.10
2023-03-18T00:14:22.537Z,5.30
2023-03-18T00:19:26.715Z,5.20
2023-03-18T00:24:32.351Z,5.38
2023-03-18T00:29:36.496Z,4.45
2023-03-18T00:34:40.649Z,5.30
2023-03-18T00:39:46.824Z,5.28
2023-03-18T00:44:51.204Z,4.88
2023-03-18T00:49:56.840Z,4.85
2023-03-18T00:55:02.436Z,4.30
2023-03-18T01:00:08.501Z,4.47
2023-03-18T01:05:14.168Z,5.13
2023-03-18T01:10:19.843Z,4.88
2023-03-18T01:15:24.167Z,4.57
2023-03-18T01:20:29.329Z,4.65
2023-03-18T01:25:37.403Z,5.18
2023-03-18T01:30:42.354Z,5.25
2023-03-18T01:35:49.566Z,4.55
2023-03-18T01:40:55.257Z,5.38
2023-03-18T01:46:02.420Z,4.87
2023-03-18T01:56:16.944Z,5.40
2023-03-18T02:01:27.895Z,5.40
2023-03-18T02:06:33.777Z,5.53
2023-03-18T02:11:42.474Z,5.03
2023-03-18T02:16:52.729Z,6.35
2023-03-18T02:22:15.421Z,6.35
2023-03-18T02:27:24.165Z,5.57
2023-03-18T02:37:32.532Z,5.53
2023-03-18T02:42:38.814Z,5.95
2023-03-18T02:47:46.484Z,6.10
2023-03-18T02:57:57.511Z,5.93
2023-03-18T03:03:04.016Z,5.90
2023-03-18T03:08:09.478Z,6.07
2023-03-18T03:13:18.818Z,6.43
2023-03-18T03:18:24.452Z,5.30
2023-03-18T03:23:29.515Z,5.63
2023-03-18T03:28:35.392Z,6.15
2023-03-18T03:33:41.859Z,6.20
2023-03-18T03:38:47.054Z,7.00
2023-03-18T03:43:52.553Z,5.97
2023-03-18T03:48:56.659Z,6.22
2023-03-18T03:54:01.019Z,6.82
2023-03-18T03:59:07.190Z,7.93
2023-03-18T04:04:33.767Z,7.03
2023-03-18T04:09:38.123Z,7.03
2023-03-18T04:14:44.005Z,7.28
2023-03-18T04:19:49.648Z,7.78
2023-03-18T04:24:54.080Z,8.63
2023-03-18T04:29:59.576Z,7.28
2023-03-18T04:35:16.297Z,7.45
2023-03-18T04:40:21.925Z,7.63
2023-03-18T04:45:28.398Z,8.45
2023-03-18T04:50:35.839Z,7.88
2023-03-18T04:55:41.816Z,8.13
2023-03-18T05:00:49.398Z,8.10
2023-03-18T05:06:04.839Z,8.85
2023-03-18T05:11:25.352Z,9.73
2023-03-18T05:16:31.558Z,8.75
2023-03-18T05:21:36.690Z,9.00
2023-03-18T05:26:41.348Z,8.88
2023-03-18T05:31:47.958Z,8.77
2023-03-18T05:36:55.135Z,8.52
2023-03-18T05:41:59.656Z,8.45
2023-03-18T05:47:08.521Z,8.60
2023-03-18T05:52:32.839Z,9.75
2023-03-18T05:57:40.522Z,8.63
2023-03-18T06:02:49.715Z,9.43
2023-03-18T06:07:55.419Z,9.95
2023-03-18T06:13:00.292Z,8.27
2023-03-18T06:18:06.291Z,8.77
2023-03-18T06:23:10.546Z,8.57
2023-03-18T06:28:15.407Z,8.43
2023-03-18T06:33:21.425Z,8.95
2023-03-18T06:38:25.601Z,8.23
2023-03-18T06:43:31.178Z,8.77
2023-03-18T06:48:40.321Z,7.53
2023-03-18T06:53:45.524Z,7.78
2023-03-18T06:58:50.114Z,8.38
2023-03-18T07:03:56.043Z,8.45
2023-03-18T07:09:01.234Z,7.38
2023-03-18T07:14:06.191Z,8.07
2023-03-18T07:19:15.321Z,6.50
2023-03-18T07:24:22.849Z,7.35
2023-03-18T07:29:27.020Z,7.00
2023-03-18T07:34:32.590Z,8.27
2023-03-18T07:39:37.418Z,6.95
2023-03-18T07:44:41.769Z,7.05
2023-03-18T07:49:47.454Z,7.55
2023-03-18T07:54:51.472Z,7.15
2023-03-18T07:59:56.223Z,6.53
2023-03-18T08:05:01.609Z,7.03
2023-03-18T08:10:06.840Z,7.50
2023-03-18T08:15:12.260Z,6.30
2023-03-18T08:20:18.050Z,6.65
2023-03-18T08:25:23.658Z,6.32
2023-03-18T08:30:28.921Z,6.70
2023-03-18T08:35:36.132Z,6.35
2023-03-18T08:40:42.503Z,7.00
2023-03-18T08:45:47.276Z,5.82
2023-03-18T08:50:53.703Z,5.93
2023-03-18T08:55:57.822Z,5.55
2023-03-18T09:01:03.488Z,5.90
2023-03-18T09:06:09.907Z,4.63
2023-03-18T09:11:14.184Z,4.07
2023-03-18T09:16:18.508Z,4.72
2023-03-18T09:21:24.075Z,4.78
2023-03-18T09:26:28.064Z,3.90
2023-03-18T09:31:32.699Z,3.70
2023-03-18T09:36:38.142Z,3.53
2023-03-18T09:41:59.840Z,3.13
2023-03-18T09:47:24.595Z,3.45
2023-03-18T09:52:37.183Z,3.75
2023-03-18T09:57:45.488Z,3.28
2023-03-18T10:02:54.742Z,2.83
2023-03-18T10:08:07.903Z,3.60
2023-03-18T10:13:18.949Z,3.42
2023-03-18T10:18:30.980Z,2.90
2023-03-18T10:23:50.828Z,2.97
2023-03-18T10:29:13.532Z,3.22
2023-03-18T10:34:21.987Z,2.10
2023-03-18T10:39:29.472Z,2.40
2023-03-18T10:44:37.538Z,2.47
2023-03-18T10:49:50.755Z,2.30
2023-03-18T10:54:56.286Z,2.10
2023-03-18T11:00:00.460Z,1.75
2023-03-18T11:05:16.994Z,2.22
2023-03-18T11:10:28.915Z,2.05
2023-03-18T11:15:38.486Z,2.20
2023-03-18T11:20:48.056Z,2.58
2023-03-18T11:25:57.053Z,2.80
2023-03-18T11:31:08.042Z,2.70
2023-03-18T11:36:19.363Z,2.28
2023-03-18T11:41:27.890Z,1.85
2023-03-18T11:46:36.384Z,2.78
2023-03-18T11:51:47.804Z,1.50
2023-03-18T11:56:58.727Z,2.42
2023-03-18T12:02:45.256Z,1.98
2023-03-18T12:13:31.824Z,2.08
2023-03-18T12:19:05.113Z,2.72
2023-03-18T12:24:47.682Z,1.75
2023-03-18T12:30:09.791Z,1.98
2023-03-18T12:35:42.767Z,2.17
2023-03-18T12:40:59.490Z,2.40
2023-03-18T12:46:13.286Z,1.73
2023-03-18T12:51:26.059Z,2.08
2023-03-18T12:56:32.749Z,2.38
2023-03-18T13:01:47.914Z,2.38
2023-03-18T13:07:02.224Z,1.83
2023-03-18T13:12:11.630Z,2.00
2023-03-18T13:17:23.971Z,2.00
2023-03-18T13:23:13.126Z,1.70
2023-03-18T13:28:51.472Z,1.90
2023-03-18T13:34:26.727Z,1.48
2023-03-18T13:39:52.732Z,1.40
2023-03-18T13:45:08.993Z,1.47
2023-03-18T13:50:33.084Z,1.60
2023-03-18T13:55:48.064Z,1.33
2023-03-18T14:01:40.370Z,1.45
2023-03-18T14:06:55.565Z,2.00
2023-03-18T14:12:19.024Z,1.23
2023-03-18T14:17:48.184Z,1.02
2023-03-18T14:22:55.078Z,1.40
2023-03-18T14:28:14.756Z,1.75
2023-03-18T14:33:54.122Z,1.10
2023-03-18T14:39:04.202Z,1.23
2023-03-18T14:44:21.500Z,1.50
2023-03-18T14:49:36.646Z,1.50
2023-03-18T14:54:46.111Z,1.00
2023-03-18T14:59:50.542Z,1.45
2023-03-18T15:04:57.161Z,1.02
2023-03-18T15:10:12.077Z,1.20
2023-03-18T15:15:18.875Z,1.40
2023-03-18T15:20:24.186Z,1.13
2023-03-18T15:25:30.901Z,1.10
2023-03-18T15:30:35.382Z,1.00
2023-03-18T15:35:40.285Z,1.00
2023-03-18T15:40:50.877Z,1.05
2023-03-18T15:45:58.953Z,1.38
2023-03-18T15:51:05.285Z,1.00
2023-03-18T15:56:19.697Z,1.38
2023-03-18T16:01:23.761Z,0.90
2023-03-18T16:06:28.839Z,1.10
2023-03-18T16:11:36.943Z,1.00
2023-03-18T16:16:41.043Z,1.20
2023-03-18T16:21:45.673Z,1.10
2023-03-18T16:26:52.904Z,1.30
2023-03-18T16:31:57.128Z,0.93
2023-03-18T16:37:01.807Z,1.10
2023-03-18T16:42:10.511Z,1.65
2023-03-18T16:47:23.097Z,1.63
2023-03-18T16:52:27.504Z,1.00
2023-03-18T16:57:33.473Z,2.97
2023-03-18T17:02:38.107Z,1.38
2023-03-18T17:07:42.149Z,1.45
2023-03-18T17:12:54.058Z,1.88
2023-03-18T17:17:59.745Z,1.58
2023-03-18T17:23:04.653Z,1.08
2023-03-18T17:28:18.624Z,0.90
2023-03-18T17:33:27.280Z,1.23
2023-03-18T17:38:32.341Z,1.70
2023-03-18T17:43:38.313Z,1.10
2023-03-18T17:48:42.495Z,1.00
2023-03-18T17:53:49.464Z,1.42
2023-03-18T18:04:01.807Z,1.80
2023-03-18T18:09:06.601Z,1.85
2023-03-18T18:14:20.488Z,1.55
2023-03-18T18:19:25.111Z,1.63
2023-03-18T18:24:31.576Z,1.35
2023-03-18T18:29:37.963Z,1.48
2023-03-18T18:34:42.168Z,1.20
2023-03-18T18:39:46.204Z,1.27
2023-03-18T18:44:52.762Z,1.13
2023-03-18T18:49:56.768Z,1.30
2023-03-18T18:55:01.097Z,1.20
2023-03-18T19:00:11.413Z,0.50
2023-03-18T19:05:16.574Z,0.55
2023-03-18T19:10:21.396Z,0.52
2023-03-18T19:15:26.880Z,0.47
2023-03-18T19:20:32.266Z,0.50
2023-03-18T19:25:36.481Z,0.60
2023-03-18T19:30:42.707Z,0.95
2023-03-18T19:35:47.472Z,0.70
2023-03-18T19:40:52.891Z,0.73
2023-03-18T19:45:58.724Z,0.63
2023-03-18T19:51:03.462Z,0.98
2023-03-18T19:56:18.922Z,0.85
2023-03-18T20:01:25.396Z,0.73
2023-03-18T20:06:29.493Z,0.75
2023-03-18T20:11:35.633Z,0.63
2023-03-18T20:16:41.250Z,0.80
2023-03-18T20:21:45.731Z,1.20
2023-03-18T20:26:49.955Z,0.40
2023-03-18T20:31:56.741Z,0.82
2023-03-18T20:37:00.917Z,0.82
2023-03-18T20:42:05.230Z,0.95
2023-03-18T20:47:10.911Z,1.05
2023-03-18T20:52:30.497Z,0.70
2023-03-18T20:57:34.560Z,0.80
2023-03-18T21:02:40.093Z,0.73
2023-03-18T21:07:45.066Z,0.98
2023-03-18T21:12:50.235Z,0.90
2023-03-18T21:17:55.921Z,0.73
2023-03-18T21:23:00.037Z,1.00
2023-03-18T21:28:04.404Z,1.10
2023-03-18T21:33:23.139Z,0.93
2023-03-18T21:38:29.320Z,1.00
2023-03-18T21:43:35.899Z,1.77
2023-03-18T21:48:41.675Z,1.20
2023-03-18T21:53:47.562Z,1.20
2023-03-18T21:58:51.755Z,1.25
2023-03-18T22:03:57.643Z,1.13
2023-03-18T22:09:02.359Z,1.20
2023-03-18T22:14:06.503Z,1.10
2023-03-18T22:19:12.064Z,1.25
2023-03-18T22:24:16.380Z,1.42
2023-03-18T22:29:20.469Z,1.50
2023-03-18T22:34:32.803Z,1.75
2023-03-18T22:39:37.385Z,1.73
2023-03-18T22:44:41.549Z,1.88
2023-03-18T22:49:47.616Z,1.58
2023-03-18T22:54:56.208Z,1.63
2023-03-18T23:00:00.724Z,1.30
2023-03-18T23:05:07.891Z,1.50
2023-03-18T23:10:14.081Z,1.58
2023-03-18T23:15:20.772Z,1.30
2023-03-18T23:20:26.309Z,1.15
2023-03-18T23:25:30.356Z,1.20
2023-03-18T23:30:39.790Z,1.35
2023-03-18T23:35:45.506Z,1.40
2023-03-18T23:40:49.593Z,1.00
2023-03-18T23:45:53.741Z,1.27
2023-03-18T23:50:59.203Z,1.20
2023-03-18T23:56:03.385Z,1.25
